Time;durP1;ratioP1;P1;durP2;ratioP2;P2;SDS_P1;SDS_P2;PMS_P1;PMS_P2;Temp;Humidity;BMP_temperature;BMP_pressure;BME280_temperature;BME280_humidity;BME280_pressure;Samples;Min_cycle;Max_cycle;Signal;HPM_P1;HPM_P2
2021/10/25 03:45:24;;;;;;;3.33;3.03;;;6.00;33.40;;;;;;10107810;29;20233;-75
2021/10/25 04:30:55;;;;;;;3.53;3.23;;;5.70;33.40;;;;;;10471577;27;20574;-77
2021/10/25 04:35:58;;;;;;;4.43;3.87;;;5.70;33.50;;;;;;10468288;28;20239;-77
2021/10/25 04:41:01;;;;;;;4.07;3.67;;;5.70;33.40;;;;;;10456748;28;20220;-77
2021/10/25 04:46:06;;;;;;;3.97;3.53;;;5.80;33.50;;;;;;10459526;28;20246;-74
2021/10/25 04:51:09;;;;;;;3.87;3.47;;;5.70;33.50;;;;;;10469211;28;20231;-77
2021/10/25 04:56:12;;;;;;;4.50;4.10;;;5.80;33.50;;;;;;10467237;28;20232;-77
2021/10/25 05:01:17;;;;;;;4.43;3.90;;;5.70;33.20;;;;;;10475020;28;20307;-77
2021/10/25 05:06:20;;;;;;;5.73;4.80;;;5.70;33.50;;;;;;10460956;28;20239;-76
2021/10/25 05:11:24;;;;;;;5.70;5.10;;;5.70;33.40;;;;;;10466664;28;20227;-77
2021/10/25 05:16:29;;;;;;;5.63;4.53;;;5.60;33.60;;;;;;10465044;28;20233;-77
2021/10/25 05:21:32;;;;;;;7.93;5.57;;;5.60;33.70;;;;;;10474831;28;20869;-77
2021/10/25 05:26:36;;;;;;;5.90;5.17;;;5.60;33.40;;;;;;10468265;28;20221;-76
2021/10/25 05:31:40;;;;;;;6.23;5.60;;;5.50;33.50;;;;;;10470571;28;20243;-76
2021/10/25 05:36:44;;;;;;;8.37;4.83;;;5.40;33.70;;;;;;10472468;28;20594;-74
2021/10/25 05:41:47;;;;;;;4.63;3.90;;;5.30;34.00;;;;;;10429524;28;20627;-75
2021/10/25 05:46:55;;;;;;;5.03;4.53;;;5.30;34.10;;;;;;10434779;28;20229;-75
2021/10/25 05:51:59;;;;;;;9.80;5.47;;;5.30;34.30;;;;;;10434324;28;20220;-75
2021/10/25 05:57:02;;;;;;;6.90;5.97;;;5.30;34.10;;;;;;10434035;28;20690;-75
2021/10/25 06:02:12;;;;;;;6.03;4.87;;;5.30;34.20;;;;;;10435797;28;20684;-74
2021/10/25 06:07:15;;;;;;;5.20;4.70;;;5.30;34.20;;;;;;10431184;28;20233;-74
2021/10/25 06:12:19;;;;;;;5.50;5.00;;;5.30;34.10;;;;;;10437440;28;20251;-74
2021/10/25 06:17:37;;;;;;;8.13;6.70;;;5.30;34.00;;;;;;10430978;28;20252;-74
2021/10/25 06:22:40;;;;;;;6.63;5.93;;;5.30;34.30;;;;;;10428028;28;20236;-74
2021/10/25 06:27:46;;;;;;;7.70;6.97;;;5.30;34.20;;;;;;10441798;28;20232;-74
2021/10/25 06:32:51;;;;;;;8.97;8.17;;;5.30;34.30;;;;;;10430928;28;20272;-74
2021/10/25 06:37:59;;;;;;;7.50;6.70;;;5.40;34.60;;;;;;10439403;28;20232;-74
2021/10/25 06:43:03;;;;;;;6.70;6.10;;;5.30;34.30;;;;;;10401345;28;20241;-74
2021/10/25 06:48:07;;;;;;;6.53;5.73;;;5.40;34.50;;;;;;10385155;28;20230;-77
2021/10/25 06:53:12;;;;;;;6.50;5.73;;;5.40;35.20;;;;;;10387847;28;20232;-76
2021/10/25 06:58:15;;;;;;;7.07;6.17;;;5.50;35.00;;;;;;10383078;28;20233;-74
2021/10/25 07:03:20;;;;;;;6.63;6.03;;;5.60;35.00;;;;;;10387613;28;20740;-77
2021/10/25 07:08:23;;;;;;;8.80;7.83;;;5.60;35.20;;;;;;10423098;28;20236;-75
2021/10/25 07:13:26;;;;;;;8.10;6.77;;;5.70;35.10;;;;;;10439336;28;20232;-77
2021/10/25 07:18:35;;;;;;;7.80;6.90;;;5.80;35.00;;;;;;10426738;28;20263;-77
2021/10/25 08:06:31;;;;;;;8.80;7.90;;;6.40;36.20;;;;;;10437383;28;20939;-80
2021/10/25 08:11:40;;;;;;;7.70;6.70;;;6.50;36.40;;;;;;10442454;28;20228;-78
2021/10/25 08:16:52;;;;;;;7.70;5.87;;;6.50;36.10;;;;;;10436435;28;20221;-78
2021/10/25 08:21:59;;;;;;;6.80;5.73;;;6.60;36.40;;;;;;10423747;28;20232;-74
2021/10/25 08:27:03;;;;;;;7.17;5.13;;;6.70;37.20;;;;;;10438150;28;20915;-77
2021/10/25 08:32:13;;;;;;;6.50;5.67;;;6.90;39.30;;;;;;10437107;28;20228;-76
2021/10/25 08:42:41;;;;;;;6.87;6.17;;;7.70;39.00;;;;;;10417346;28;20240;-74
2021/10/25 08:47:47;;;;;;;6.70;5.97;;;8.10;38.20;;;;;;10422353;28;20332;-74
2021/10/25 08:52:52;;;;;;;9.47;8.57;;;8.30;37.80;;;;;;10414572;28;20249;-74
2021/10/25 08:57:55;;;;;;;7.67;7.00;;;8.40;37.90;;;;;;10418242;28;20582;-74
2021/10/25 09:03:03;;;;;;;8.03;7.20;;;8.50;37.20;;;;;;10421652;28;20612;-74
2021/10/25 09:08:10;;;;;;;9.67;8.67;;;8.60;37.30;;;;;;10425365;28;20271;-75
2021/10/25 09:13:17;;;;;;;8.10;7.30;;;8.60;37.70;;;;;;10424080;28;20233;-73
2021/10/25 09:18:22;;;;;;;8.90;6.50;;;8.70;37.50;;;;;;10436177;28;20807;-73
2021/10/25 09:23:31;;;;;;;6.30;5.80;;;8.70;37.60;;;;;;10429036;28;20224;-72
2021/10/25 09:28:37;;;;;;;6.73;6.13;;;8.80;38.30;;;;;;10430337;28;20234;-76
2021/10/25 09:33:51;;;;;;;7.37;6.03;;;8.90;38.10;;;;;;10432362;28;20755;-76
2021/10/25 09:39:04;;;;;;;7.30;6.60;;;9.00;38.70;;;;;;10426527;28;20217;-76
2021/10/25 09:49:34;;;;;;;6.73;6.03;;;9.30;38.40;;;;;;10413053;28;20597;-76
2021/10/25 09:54:39;;;;;;;7.53;6.73;;;9.40;37.90;;;;;;10426846;28;20267;-76
2021/10/25 09:59:53;;;;;;;7.57;6.70;;;9.50;38.40;;;;;;10428961;28;20225;-77
2021/10/25 10:04:57;;;;;;;6.97;6.37;;;9.60;39.40;;;;;;10432011;28;20221;-74
2021/10/25 10:10:03;;;;;;;7.40;6.70;;;9.70;38.10;;;;;;10430017;28;20237;-78
2021/10/25 10:15:08;;;;;;;7.17;6.47;;;9.80;38.80;;;;;;10434304;28;20232;-76
2021/10/25 10:20:19;;;;;;;7.13;6.53;;;9.90;38.40;;;;;;10428039;28;20231;-75
2021/10/25 10:25:33;;;;;;;7.63;7.03;;;10.10;37.90;;;;;;10438249;28;20233;-74
2021/10/25 10:30:52;;;;;;;6.70;6.10;;;10.20;38.50;;;;;;10431220;28;20228;-78
2021/10/25 10:35:56;;;;;;;7.93;6.77;;;10.30;38.50;;;;;;10431441;28;20587;-78
2021/10/25 10:41:00;;;;;;;8.17;7.47;;;10.40;37.40;;;;;;10436003;28;20229;-78
2021/10/25 10:46:07;;;;;;;9.23;8.33;;;10.60;38.10;;;;;;10388211;28;20230;-76
2021/10/25 10:51:14;;;;;;;9.10;8.30;;;10.70;37.70;;;;;;10388079;28;20271;-75
2021/10/25 10:56:24;;;;;;;8.93;8.13;;;10.80;37.50;;;;;;10383682;28;20245;-76
2021/10/25 11:01:27;;;;;;;8.90;8.10;;;10.90;37.80;;;;;;10394731;28;20233;-76
2021/10/25 11:06:32;;;;;;;9.13;8.40;;;11.00;37.50;;;;;;10388045;28;20226;-76
2021/10/25 11:11:40;;;;;;;10.07;9.07;;;11.10;37.50;;;;;;10388192;28;20321;-76
2021/10/25 11:16:52;;;;;;;8.83;8.07;;;11.20;37.70;;;;;;10418171;28;20721;-76
2021/10/25 11:21:57;;;;;;;8.93;8.00;;;11.30;37.50;;;;;;10463372;22;20597;-76
2021/10/25 11:27:01;;;;;;;9.10;8.20;;;11.40;37.50;;;;;;10437434;28;20225;-76
2021/10/25 11:32:07;;;;;;;9.53;8.73;;;11.50;37.70;;;;;;10413044;28;20225;-76
2021/10/25 11:37:16;;;;;;;8.33;7.57;;;11.60;37.70;;;;;;10413671;28;20233;-75
2021/10/25 11:42:22;;;;;;;10.40;9.40;;;11.70;37.60;;;;;;10420914;28;20244;-76
2021/10/25 11:47:28;;;;;;;10.60;9.47;;;11.90;37.80;;;;;;10411557;28;20237;-76
2021/10/25 11:52:36;;;;;;;11.23;10.07;;;11.90;37.60;;;;;;10419855;28;20653;-75
2021/10/25 11:57:48;;;;;;;11.37;10.30;;;12.00;38.00;;;;;;10416410;28;20229;-75
2021/10/25 12:02:52;;;;;;;12.67;11.47;;;12.20;38.20;;;;;;10413206;28;20225;-76
2021/10/25 12:07:56;;;;;;;11.93;10.77;;;12.30;37.50;;;;;;10390263;28;20235;-75
2021/10/25 12:13:02;;;;;;;12.10;11.00;;;12.30;37.40;;;;;;10381310;28;20640;-75
2021/10/25 12:18:07;;;;;;;12.53;11.33;;;12.40;37.60;;;;;;10402638;28;20964;-75
2021/10/25 12:23:16;;;;;;;13.70;12.30;;;12.50;37.60;;;;;;10403471;28;20236;-75
2021/10/25 12:28:21;;;;;;;14.47;13.03;;;12.60;37.80;;;;;;10405289;28;20229;-75
2021/10/25 12:33:25;;;;;;;16.50;15.10;;;12.60;37.80;;;;;;10401335;28;20228;-76
2021/10/25 12:38:28;;;;;;;15.03;13.63;;;12.70;37.50;;;;;;10417706;28;20237;-76
2021/10/25 12:43:40;;;;;;;13.93;12.63;;;12.80;37.50;;;;;;10425539;28;20233;-75
2021/10/25 12:48:45;;;;;;;14.20;12.80;;;12.90;38.00;;;;;;10425183;28;20232;-75
2021/10/25 12:53:51;;;;;;;13.83;12.60;;;12.90;37.40;;;;;;10431451;28;20225;-75
2021/10/25 12:59:02;;;;;;;15.00;13.60;;;13.00;37.60;;;;;;10430270;28;20217;-75
2021/10/25 13:04:06;;;;;;;14.33;12.93;;;13.10;37.90;;;;;;10435775;28;20228;-75
2021/10/25 13:09:12;;;;;;;16.57;14.83;;;13.20;37.40;;;;;;10437003;28;20247;-75
2021/10/25 13:14:16;;;;;;;16.17;14.67;;;13.20;37.60;;;;;;10428480;28;20251;-74
2021/10/25 13:19:20;;;;;;;15.83;14.27;;;13.20;37.50;;;;;;10431808;28;20225;-75
2021/10/25 13:24:24;;;;;;;10.83;9.87;;;13.30;37.30;;;;;;10431902;28;20229;-74
2021/10/25 13:29:28;;;;;;;14.47;13.20;;;13.30;38.70;;;;;;10427196;28;20492;-74
2021/10/25 13:34:31;;;;;;;15.17;13.77;;;13.40;38.10;;;;;;10426029;28;20229;-74
2021/10/25 13:39:35;;;;;;;16.60;15.00;;;13.60;37.60;;;;;;10432152;28;20227;-74
2021/10/25 13:44:39;;;;;;;15.00;13.60;;;13.60;37.40;;;;;;10432702;28;20221;-74
2021/10/25 13:49:42;;;;;;;17.00;15.40;;;13.60;37.40;;;;;;10433112;28;20229;-74
2021/10/25 13:54:46;;;;;;;15.50;14.10;;;13.60;37.00;;;;;;10430512;28;20229;-74
2021/10/25 13:59:51;;;;;;;16.30;14.70;;;13.70;37.20;;;;;;10433530;28;20628;-74
2021/10/25 14:04:57;;;;;;;16.37;14.87;;;13.70;37.90;;;;;;10433546;28;20227;-74
2021/10/25 14:10:05;;;;;;;13.87;12.57;;;13.70;37.20;;;;;;10423996;28;20240;-78
2021/10/25 14:15:19;;;;;;;15.00;13.53;;;13.80;37.70;;;;;;10428866;28;20240;-74
2021/10/25 14:20:25;;;;;;;16.30;14.67;;;13.80;37.60;;;;;;10429217;28;20225;-75
2021/10/25 14:25:30;;;;;;;17.10;15.50;;;13.90;37.40;;;;;;10438158;28;20761;-74
2021/10/25 14:30:35;;;;;;;17.17;15.57;;;13.90;37.30;;;;;;10427743;28;20225;-74
2021/10/25 14:35:38;;;;;;;17.27;15.57;;;13.90;38.00;;;;;;10430707;28;20263;-73
2021/10/25 14:40:50;;;;;;;18.40;16.73;;;13.90;37.10;;;;;;10423345;28;20229;-74
2021/10/25 14:46:01;;;;;;;18.47;16.67;;;13.90;37.20;;;;;;10430709;28;20613;-75
2021/10/25 14:56:25;;;;;;;19.57;17.67;;;13.90;37.10;;;;;;10430502;28;20238;-75
2021/10/25 15:01:30;;;;;;;18.33;16.53;;;13.90;37.10;;;;;;10427707;28;20227;-75
2021/10/25 15:06:35;;;;;;;18.07;16.33;;;13.90;37.30;;;;;;10426806;28;20243;-74
2021/10/25 15:11:38;;;;;;;17.77;15.83;;;13.90;37.30;;;;;;10424155;28;20229;-74
2021/10/25 15:16:43;;;;;;;19.17;16.83;;;13.90;37.30;;;;;;10424861;28;20233;-73
2021/10/25 15:21:46;;;;;;;18.70;16.83;;;13.90;37.30;;;;;;10426553;28;20725;-73
2021/10/25 15:26:51;;;;;;;17.67;15.97;;;13.90;37.20;;;;;;10423876;28;20253;-73
2021/10/25 15:31:55;;;;;;;19.47;17.50;;;13.90;37.00;;;;;;10425676;28;20252;-73
2021/10/25 15:36:58;;;;;;;18.37;16.47;;;13.90;37.30;;;;;;10425771;28;20221;-74
2021/10/25 15:42:01;;;;;;;17.23;15.60;;;13.90;37.20;;;;;;10428336;28;20225;-74
2021/10/25 15:47:06;;;;;;;18.13;16.43;;;13.90;37.10;;;;;;10425859;28;20225;-75
2021/10/25 15:52:10;;;;;;;17.20;15.60;;;13.80;37.20;;;;;;10423509;28;20702;-74
2021/10/25 15:57:15;;;;;;;19.20;17.40;;;13.80;37.20;;;;;;10427783;28;20233;-75
2021/10/25 16:02:20;;;;;;;14.90;13.50;;;13.70;37.20;;;;;;10424996;28;20840;-76
2021/10/25 16:07:25;;;;;;;15.67;14.17;;;13.60;37.10;;;;;;10426852;28;20751;-75
2021/10/25 16:12:28;;;;;;;19.63;17.57;;;13.50;37.20;;;;;;10422749;28;20239;-75
2021/10/25 16:17:36;;;;;;;18.27;16.43;;;13.50;37.80;;;;;;10421134;28;20276;-72
2021/10/25 16:22:40;;;;;;;17.57;15.87;;;13.50;37.40;;;;;;10427431;28;20239;-73
2021/10/25 16:27:44;;;;;;;19.60;17.70;;;13.50;37.30;;;;;;10424913;28;20221;-73
2021/10/25 16:32:50;;;;;;;18.60;16.80;;;13.40;37.10;;;;;;10423216;28;20713;-73
2021/10/25 16:37:53;;;;;;;18.03;16.23;;;13.30;37.30;;;;;;10427292;28;20232;-73
2021/10/25 16:42:56;;;;;;;16.50;14.97;;;13.20;37.20;;;;;;10430729;28;20574;-73
2021/10/25 16:48:01;;;;;;;15.77;14.27;;;13.20;37.00;;;;;;10424751;28;20571;-73
2021/10/25 16:53:11;;;;;;;16.30;14.80;;;13.10;37.10;;;;;;10421304;28;20229;-73
2021/10/25 17:14:14;;;;;;;19.93;17.93;;;12.80;37.30;;;;;;10422848;28;20229;-73
2021/10/25 17:19:19;;;;;;;23.00;20.80;;;12.70;37.20;;;;;;10422957;28;20262;-73
2021/10/25 17:24:23;;;;;;;23.13;20.83;;;12.60;37.60;;;;;;10424752;28;20233;-79
2021/10/25 17:29:26;;;;;;;23.13;20.90;;;12.60;37.70;;;;;;10423670;28;20229;-72
2021/10/25 17:34:31;;;;;;;25.80;23.10;;;12.50;38.10;;;;;;10424894;28;20222;-72
2021/10/25 17:39:34;;;;;;;22.10;20.00;;;12.50;38.20;;;;;;10421401;28;20225;-73
2021/10/25 17:44:38;;;;;;;28.03;25.13;;;12.50;37.90;;;;;;10425269;28;20225;-72
2021/10/25 17:49:43;;;;;;;31.17;28.07;;;12.50;37.80;;;;;;10429336;28;20232;-72
2021/10/25 17:54:46;;;;;;;30.43;27.33;;;12.40;37.90;;;;;;10433685;28;20230;-72
2021/10/25 17:59:49;;;;;;;28.67;25.63;;;12.30;37.60;;;;;;10424850;28;20347;-73
2021/10/25 18:04:54;;;;;;;29.33;26.33;;;12.30;37.70;;;;;;10426073;28;20225;-72
2021/10/25 18:09:57;;;;;;;28.17;25.37;;;12.20;37.90;;;;;;10426874;28;21060;-73
2021/10/25 18:15:00;;;;;;;29.13;26.13;;;12.10;37.70;;;;;;10433790;28;20221;-72
2021/10/25 18:20:05;;;;;;;27.00;24.40;;;12.00;37.70;;;;;;10430440;28;20228;-73
2021/10/25 18:25:10;;;;;;;28.33;25.33;;;12.00;38.00;;;;;;10431580;28;20236;-73
2021/10/25 18:30:13;;;;;;;31.90;28.70;;;12.00;37.80;;;;;;10431354;28;20721;-72
2021/10/25 18:35:18;;;;;;;27.50;24.77;;;12.00;37.70;;;;;;10426928;28;20229;-72
2021/10/25 18:40:25;;;;;;;27.93;25.13;;;11.90;37.70;;;;;;10411842;28;20587;-72
2021/10/25 18:45:39;;;;;;;24.73;22.30;;;11.90;37.80;;;;;;10410953;28;20237;-72
2021/10/25 18:50:58;;;;;;;31.10;27.90;;;12.00;38.10;;;;;;10421904;28;20244;-72
2021/10/25 18:56:05;;;;;;;32.83;29.53;;;11.80;37.90;;;;;;10419609;28;20229;-72
2021/10/25 19:01:14;;;;;;;32.97;29.43;;;11.80;37.60;;;;;;10418711;28;20666;-72
2021/10/25 19:06:21;;;;;;;31.37;28.13;;;11.70;37.70;;;;;;10408300;28;20225;-72
2021/10/25 19:11:28;;;;;;;26.97;24.17;;;11.70;37.70;;;;;;10426826;28;20224;-72
2021/10/25 19:16:36;;;;;;;26.83;24.03;;;11.60;37.30;;;;;;10428948;28;20232;-72
2021/10/25 19:21:52;;;;;;;24.87;22.27;;;11.60;37.40;;;;;;10416670;28;20228;-72
2021/10/25 19:27:00;;;;;;;25.23;22.57;;;11.50;37.90;;;;;;10430045;28;20275;-72
2021/10/25 19:32:07;;;;;;;20.93;18.87;;;11.50;37.60;;;;;;10399923;28;21036;-72
2021/10/25 19:37:12;;;;;;;21.90;19.57;;;11.40;37.30;;;;;;10413284;28;20890;-72
2021/10/25 19:42:19;;;;;;;22.37;19.97;;;11.30;37.30;;;;;;10411315;28;20730;-72
2021/10/25 19:47:27;;;;;;;19.10;17.10;;;11.30;37.00;;;;;;10408865;28;20242;-72
2021/10/25 19:52:48;;;;;;;24.67;20.90;;;11.30;36.90;;;;;;10424893;28;20236;-72
2021/10/25 19:58:03;;;;;;;17.70;15.90;;;11.10;37.20;;;;;;10429410;28;20259;-72
2021/10/25 20:03:12;;;;;;;21.83;19.10;;;11.00;37.00;;;;;;10427544;28;20258;-72
2021/10/25 20:08:18;;;;;;;20.07;18.07;;;10.90;37.10;;;;;;10407189;28;20232;-72
2021/10/25 20:13:31;;;;;;;17.37;15.60;;;10.80;37.00;;;;;;10417743;28;20666;-72
2021/10/25 20:18:40;;;;;;;18.53;16.63;;;10.80;37.20;;;;;;10416300;28;20723;-72
2021/10/25 20:23:46;;;;;;;18.60;16.70;;;10.70;37.00;;;;;;10415463;28;20229;-72
2021/10/25 20:28:50;;;;;;;19.77;17.77;;;10.70;37.10;;;;;;10422785;28;20308;-76
2021/10/25 20:33:53;;;;;;;20.03;17.93;;;10.60;36.70;;;;;;10420927;28;20316;-78
2021/10/25 20:38:58;;;;;;;20.17;18.07;;;10.60;36.70;;;;;;10421308;28;20670;-78
2021/10/25 20:44:02;;;;;;;20.63;18.47;;;10.50;36.70;;;;;;10419792;28;20725;-75
2021/10/25 20:49:05;;;;;;;18.00;16.30;;;10.40;36.70;;;;;;10420441;28;20244;-77
2021/10/25 20:54:10;;;;;;;15.23;13.73;;;10.30;36.60;;;;;;10415558;28;20221;-77
2021/10/25 20:59:14;;;;;;;17.27;15.60;;;10.30;36.70;;;;;;10409188;28;20678;-78
2021/10/25 21:04:17;;;;;;;21.13;18.37;;;10.20;36.60;;;;;;10409380;28;20222;-77
2021/10/25 21:09:22;;;;;;;19.13;17.07;;;10.10;36.50;;;;;;10418668;28;20717;-77
2021/10/25 21:14:25;;;;;;;18.67;16.70;;;10.00;36.60;;;;;;10434849;28;20225;-78
2021/10/25 21:19:29;;;;;;;16.47;14.77;;;9.90;37.50;;;;;;10441871;28;20232;-77
2021/10/25 21:24:34;;;;;;;18.63;16.57;;;9.80;37.60;;;;;;10438597;28;20216;-78
2021/10/25 21:29:38;;;;;;;16.13;14.63;;;9.70;37.70;;;;;;10430641;28;20227;-78
2021/10/25 21:34:41;;;;;;;18.00;16.10;;;9.60;37.80;;;;;;10432273;28;20229;-78
2021/10/25 21:39:46;;;;;;;16.37;14.73;;;9.50;37.70;;;;;;10440557;28;20905;-78
2021/10/25 21:44:50;;;;;;;17.17;15.57;;;9.50;37.90;;;;;;10427860;28;20726;-78
2021/10/25 21:49:53;;;;;;;16.60;14.90;;;9.40;37.70;;;;;;10422311;28;20391;-77
2021/10/25 21:54:57;;;;;;;14.40;13.07;;;9.40;37.90;;;;;;10420486;28;20617;-78
2021/10/25 22:00:01;;;;;;;15.30;13.83;;;9.30;37.70;;;;;;10427760;28;20717;-79
2021/10/25 22:05:06;;;;;;;13.97;12.57;;;9.30;37.50;;;;;;10421421;28;20232;-78
2021/10/25 22:10:11;;;;;;;28.23;16.47;;;9.30;37.60;;;;;;10417833;28;20354;-79
2021/10/25 22:15:17;;;;;;;19.67;16.40;;;9.20;37.70;;;;;;10415261;28;20603;-78
2021/10/25 22:20:23;;;;;;;18.40;16.50;;;9.20;37.60;;;;;;10422481;28;20248;-77
2021/10/25 22:25:28;;;;;;;16.73;14.83;;;9.00;37.60;;;;;;10415796;28;20233;-78
2021/10/25 22:30:32;;;;;;;16.03;14.47;;;8.90;37.90;;;;;;10418206;28;20629;-78
2021/10/25 22:35:35;;;;;;;14.47;13.07;;;8.90;37.90;;;;;;10416643;28;20951;-78
2021/10/25 22:40:40;;;;;;;15.53;13.53;;;8.80;37.90;;;;;;10423028;28;20305;-79
2021/10/25 22:45:44;;;;;;;13.83;12.43;;;8.80;38.10;;;;;;10417074;28;20278;-79
2021/10/25 22:50:49;;;;;;;13.80;12.47;;;8.80;38.00;;;;;;10419976;28;20634;-79
2021/10/25 22:55:54;;;;;;;15.40;12.63;;;8.80;37.90;;;;;;10420880;28;20237;-79
2021/10/25 23:00:58;;;;;;;17.53;12.70;;;8.80;38.10;;;;;;10421507;28;20256;-79
2021/10/25 23:06:01;;;;;;;14.57;13.17;;;8.70;37.70;;;;;;10414927;28;20439;-79
2021/10/25 23:11:06;;;;;;;15.10;13.67;;;8.60;37.70;;;;;;10420730;28;20319;-79
2021/10/25 23:16:09;;;;;;;12.77;11.67;;;8.50;38.10;;;;;;10413387;28;20234;-79
2021/10/25 23:21:12;;;;;;;12.67;11.47;;;8.40;37.90;;;;;;10415427;28;20560;-79
2021/10/25 23:26:17;;;;;;;11.57;10.57;;;8.30;38.00;;;;;;10414493;28;20239;-79
2021/10/25 23:31:20;;;;;;;11.37;10.17;;;8.20;38.40;;;;;;10416021;28;20225;-79
2021/10/25 23:36:24;;;;;;;12.00;10.90;;;8.10;38.30;;;;;;10413466;28;20240;-80
2021/10/25 23:41:29;;;;;;;10.70;9.70;;;8.10;38.50;;;;;;10417691;28;20229;-80
2021/10/25 23:46:32;;;;;;;10.40;9.50;;;8.10;39.50;;;;;;10415937;28;20256;-80
2021/10/25 23:51:36;;;;;;;10.73;9.73;;;8.20;38.70;;;;;;10412263;28;20239;-80
2021/10/25 23:56:40;;;;;;;11.23;10.23;;;8.20;38.60;;;;;;10420293;28;20822;-80
